Time;durP1;ratioP1;P1;durP2;ratioP2;P2;SDS_P1;SDS_P2;PMS_P1;PMS_P2;Temp;Humidity;BMP_temperature;BMP_pressure;BME280_temperature;BME280_humidity;BME280_pressure;Samples;Min_cycle;Max_cycle;Signal;HPM_P1;HPM_P2
2024/04/18 00:00:24;;;;;;;4.75;3.40;;;;;;;-146.27;85.57;43940.63;5480490;26;20002;-68
2024/04/18 00:02:49;;;;;;;9.23;4.20;;;;;;;-146.27;85.51;43954.53;5474816;25;20033;-68
2024/04/18 00:05:16;;;;;;;8.93;4.10;;;;;;;-146.27;85.72;43942.59;5460133;26;20014;-71
2024/04/18 00:07:42;;;;;;;8.02;4.10;;;;;;;-146.27;85.29;43974.44;5449667;26;19994;-69
2024/04/18 00:10:07;;;;;;;5.30;4.00;;;;;;;-146.27;85.29;43956.53;5470416;26;20466;-69
2024/04/18 00:12:33;;;;;;;8.02;3.63;;;;;;;-146.27;85.51;43984.38;5467823;26;20586;-69
2024/04/18 00:14:58;;;;;;;4.32;3.50;;;;;;;-146.27;85.37;43988.34;5477939;26;19994;-70
2024/04/18 00:17:23;;;;;;;8.13;2.97;;;;;;;-146.27;85.14;43972.44;5476259;26;19990;-70
2024/04/18 00:19:49;;;;;;;5.00;3.17;;;;;;;-146.27;85.05;43994.31;5471897;26;19999;-70
2024/04/18 00:22:14;;;;;;;6.00;3.45;;;;;;;-146.27;85.26;44016.22;5458152;26;20014;-70
2024/04/18 00:24:39;;;;;;;4.97;3.38;;;;;;;-146.27;85.28;43986.38;5463819;26;19993;-70
2024/04/18 00:27:05;;;;;;;4.55;3.28;;;;;;;-146.27;85.59;43956.53;5457478;26;20003;-68
2024/04/18 00:29:30;;;;;;;4.68;2.90;;;;;;;-146.27;85.78;43944.59;5465820;26;20439;-70
2024/04/18 00:31:56;;;;;;;5.10;3.38;;;;;;;-146.27;85.73;43948.56;5471700;26;20500;-69
2024/04/18 00:34:21;;;;;;;5.97;2.92;;;;;;;-146.27;85.70;43936.63;5471512;26;20002;-70
2024/04/18 00:36:46;;;;;;;7.05;3.10;;;;;;;-146.27;85.64;43968.47;5468409;26;19994;-70
2024/04/18 00:39:12;;;;;;;4.70;2.88;;;;;;;-146.27;85.45;43996.31;5456456;26;20021;-69
2024/04/18 00:41:37;;;;;;;6.55;2.97;;;;;;;-146.27;85.67;44000.28;5459898;26;19998;-70
2024/04/18 00:44:02;;;;;;;5.13;3.15;;;;;;;-146.27;85.61;43946.59;5487994;26;20038;-69
2024/04/18 00:46:28;;;;;;;6.65;2.90;;;;;;;-146.27;85.73;43992.34;5479590;26;20006;-69
2024/04/18 00:48:57;;;;;;;5.35;2.83;;;;;;;-146.27;85.86;44004.28;5451027;26;20014;-70
2024/04/18 00:51:22;;;;;;;6.55;3.22;;;;;;;-146.27;85.74;44000.28;5453058;26;19998;-70
2024/04/18 00:53:48;;;;;;;4.40;2.60;;;;;;;-146.27;85.64;44004.28;5470976;26;20002;-70
2024/04/18 00:56:14;;;;;;;3.92;2.90;;;;;;;-146.27;85.75;44022.19;5493308;26;20006;-70
2024/04/18 00:58:40;;;;;;;6.70;3.10;;;;;;;-146.27;85.85;44008.25;5462541;26;20380;-70
2024/04/18 01:01:06;;;;;;;4.97;2.65;;;;;;;-146.27;85.62;44004.28;5461057;26;19994;-68
2024/04/18 01:03:31;;;;;;;6.78;3.13;;;;;;;-146.27;85.49;44028.16;5463588;26;19995;-68
2024/04/18 01:05:56;;;;;;;4.78;2.95;;;;;;;-146.27;85.53;44012.22;5451084;26;20009;-69
2024/04/18 01:08:22;;;;;;;4.60;2.40;;;;;;;-146.27;85.87;44018.19;5464801;26;19999;-67
2024/04/18 01:10:47;;;;;;;4.60;2.58;;;;;;;-146.27;85.73;44000.28;5481435;26;20005;-67
2024/04/18 01:13:13;;;;;;;5.57;3.08;;;;;;;-146.27;85.78;44006.25;5486043;26;20002;-70
2024/04/18 01:15:38;;;;;;;8.27;3.40;;;;;;;-146.27;85.90;44052.03;5454311;26;20014;-68
2024/04/18 01:18:04;;;;;;;4.57;2.90;;;;;;;-146.27;85.98;44004.28;5460252;26;19997;-69
2024/04/18 01:20:30;;;;;;;4.63;2.80;;;;;;;-146.27;85.92;44048.03;5465440;26;20003;-67
2024/04/18 01:22:56;;;;;;;5.50;3.60;;;;;;;-146.27;86.01;44006.25;5455361;26;19999;-69
2024/04/18 01:25:21;;;;;;;4.20;2.97;;;;;;;-146.27;85.93;44059.97;5465659;26;20010;-69
2024/04/18 01:27:47;;;;;;;6.15;2.45;;;;;;;-146.27;86.11;44020.19;5452746;26;20058;-70
2024/04/18 01:30:13;;;;;;;4.20;2.40;;;;;;;-146.27;86.02;44014.22;5481272;26;19991;-68
2024/04/18 01:32:38;;;;;;;4.35;2.30;;;;;;;-146.27;86.06;44044.06;5467986;26;20064;-68
2024/04/18 01:35:05;;;;;;;4.10;2.47;;;;;;;-146.27;86.43;44032.13;5449857;26;20007;-68
2024/04/18 01:37:31;;;;;;;7.85;2.95;;;;;;;-146.27;85.91;44036.09;5463577;26;20056;-67
2024/04/18 01:39:56;;;;;;;4.40;2.55;;;;;;;-146.27;86.38;44022.19;5457022;26;20450;-68
2024/04/18 01:42:21;;;;;;;4.10;2.55;;;;;;;-146.27;86.52;43988.34;5486685;26;20445;-68
2024/04/18 01:44:48;;;;;;;4.47;2.53;;;;;;;-146.27;86.51;43988.34;5452992;26;20455;-68
2024/04/18 01:47:13;;;;;;;4.72;2.00;;;;;;;-146.27;86.44;43998.31;5485850;26;20020;-68
2024/04/18 01:49:39;;;;;;;5.70;2.25;;;;;;;-146.27;86.81;43978.41;5476503;26;20006;-66
2024/04/18 01:52:07;;;;;;;7.68;2.60;;;;;;;-146.27;86.49;43958.53;5466646;26;20014;-68
2024/04/18 01:54:33;;;;;;;5.03;2.10;;;;;;;-146.27;86.43;43996.31;5472817;26;20067;-67
2024/04/18 01:56:58;;;;;;;4.10;2.03;;;;;;;-146.27;86.64;43964.50;5459239;26;20007;-67
2024/04/18 01:59:24;;;;;;;3.40;2.03;;;;;;;-146.27;86.64;43968.47;5462163;26;19998;-67
2024/04/18 02:01:49;;;;;;;4.60;2.55;;;;;;;-146.27;86.79;43944.59;5451498;26;20003;-68
2024/04/18 02:04:17;;;;;;;7.30;2.47;;;;;;;-146.27;86.63;43948.56;5462233;26;20411;-67
2024/04/18 02:06:43;;;;;;;3.42;2.17;;;;;;;-146.27;87.07;43932.66;5465981;26;20025;-68
2024/04/18 02:09:08;;;;;;;4.72;2.33;;;;;;;-146.27;86.86;43948.56;5457430;26;20537;-67
2024/04/18 02:11:34;;;;;;;7.40;2.45;;;;;;;-146.27;86.41;43954.53;5461237;26;20401;-70
2024/04/18 02:13:59;;;;;;;4.65;2.00;;;;;;;-146.27;86.21;43956.53;5469299;26;20346;-69
2024/04/18 02:16:25;;;;;;;8.43;2.13;;;;;;;-146.27;86.52;43964.50;5466683;26;20923;-68
2024/04/18 02:18:50;;;;;;;5.93;2.28;;;;;;;-146.27;86.61;43980.41;5475573;26;20346;-70
2024/04/18 02:21:15;;;;;;;4.25;2.30;;;;;;;-146.27;86.69;43958.53;5457012;26;20769;-70
2024/04/18 02:23:41;;;;;;;4.78;2.65;;;;;;;-146.27;87.02;43928.69;5450230;26;20006;-70
2024/04/18 02:26:06;;;;;;;3.20;2.00;;;;;;;-146.27;86.90;43928.69;5474699;26;20137;-69
2024/04/18 02:28:31;;;;;;;5.40;2.72;;;;;;;-146.27;87.13;43944.59;5482871;26;19990;-70
2024/04/18 02:30:57;;;;;;;3.10;2.00;;;;;;;-146.27;86.86;43960.50;5474308;26;20006;-68
2024/04/18 02:33:22;;;;;;;4.38;2.47;;;;;;;-146.27;86.92;43964.50;5454636;26;20007;-69
2024/04/18 02:35:48;;;;;;;2.45;2.00;;;;;;;-146.27;86.59;43978.41;5468778;26;20009;-69
2024/04/18 02:38:13;;;;;;;4.07;2.30;;;;;;;-146.27;86.70;43958.53;5455850;26;19994;-70
2024/04/18 02:40:39;;;;;;;4.38;2.55;;;;;;;-146.27;86.73;43976.41;5449828;26;20452;-70
2024/04/18 02:43:04;;;;;;;3.45;2.38;;;;;;;-146.27;86.96;43966.47;5455453;26;21073;-71
2024/04/18 02:45:29;;;;;;;5.47;2.40;;;;;;;-146.27;87.31;43932.66;5455125;26;20006;-70
2024/04/18 02:47:55;;;;;;;4.22;2.55;;;;;;;-146.27;87.46;43912.75;5476128;26;20013;-68
2024/04/18 02:50:20;;;;;;;6.03;2.35;;;;;;;-146.27;87.32;43944.59;5472993;26;20002;-71
2024/04/18 02:52:46;;;;;;;6.13;2.22;;;;;;;-146.27;87.35;43944.59;5482313;26;20006;-70
2024/04/18 02:55:11;;;;;;;6.05;2.30;;;;;;;-146.27;87.93;43910.78;5462335;26;20014;-70
2024/04/18 02:57:36;;;;;;;6.88;2.63;;;;;;;-146.27;87.51;43916.75;5451416;26;20009;-70
2024/04/18 03:00:02;;;;;;;3.58;2.65;;;;;;;-146.27;87.69;43908.78;5463892;26;19998;-70
2024/04/18 03:02:27;;;;;;;5.85;2.53;;;;;;;-146.27;87.39;43900.81;5467579;26;20435;-70
2024/04/18 03:04:52;;;;;;;3.97;2.10;;;;;;;-146.27;87.22;43922.72;5449843;26;20035;-70
2024/04/18 03:07:18;;;;;;;5.30;2.30;;;;;;;-146.27;87.37;43914.75;5460410;26;20133;-70
2024/04/18 03:09:43;;;;;;;3.28;2.47;;;;;;;-146.27;87.44;43922.72;5460850;26;19995;-70
2024/04/18 03:12:09;;;;;;;4.05;2.53;;;;;;;-146.27;87.37;43872.97;5451659;26;20009;-70
2024/04/18 03:14:34;;;;;;;4.70;2.60;;;;;;;-146.27;87.20;43908.78;5453258;26;20014;-71
2024/04/18 03:16:59;;;;;;;4.05;2.67;;;;;;;-146.27;87.18;43906.78;5471714;26;19998;-70
2024/04/18 03:19:25;;;;;;;7.57;3.05;;;;;;;-146.27;87.18;43922.72;5450589;26;20006;-69
2024/04/18 03:21:51;;;;;;;3.85;2.45;;;;;;;-146.27;87.40;43880.94;5454639;26;20418;-67
2024/04/18 03:24:21;;;;;;;4.65;2.65;;;;;;;-146.27;87.31;43898.84;5450623;26;20007;-68
2024/04/18 03:26:48;;;;;;;4.75;2.50;;;;;;;-146.27;87.39;43894.84;5448489;26;19995;-69
2024/04/18 03:29:14;;;;;;;3.67;2.22;;;;;;;-146.27;87.61;43912.75;5448149;26;20007;-67
2024/04/18 03:31:46;;;;;;;4.65;2.78;;;;;;;-146.27;87.51;43886.91;5449527;26;20353;-69
2024/04/18 03:34:12;;;;;;;6.78;3.10;;;;;;;-146.27;87.42;43910.78;5449686;26;20010;-67
2024/04/18 03:36:47;;;;;;;5.07;3.35;;;;;;;-146.27;87.42;43926.69;5482762;26;20006;-67
2024/04/18 03:39:13;;;;;;;3.83;2.78;;;;;;;-146.27;87.40;43936.63;5460360;26;20478;-68
2024/04/18 03:41:41;;;;;;;7.70;2.80;;;;;;;-146.27;87.37;43924.69;5457390;26;20003;-68
2024/04/18 03:44:07;;;;;;;4.53;2.55;;;;;;;-146.27;87.40;43918.72;5459015;26;19998;-67
2024/04/18 03:46:34;;;;;;;5.40;3.22;;;;;;;-146.27;87.75;43912.75;5453452;26;20026;-69
2024/04/18 03:49:00;;;;;;;5.95;3.72;;;;;;;-146.27;87.97;43865.00;5449682;26;20475;-68
2024/04/18 03:51:27;;;;;;;6.70;3.15;;;;;;;-146.27;87.73;43882.91;5469273;26;20451;-69
2024/04/18 03:53:52;;;;;;;7.40;2.97;;;;;;;-146.27;87.72;43876.94;5454928;26;20346;-69
2024/04/18 03:56:18;;;;;;;10.35;3.72;;;;;;;-146.27;87.82;43878.94;5473335;26;19994;-68
2024/04/18 03:58:43;;;;;;;10.40;3.55;;;;;;;-146.27;88.00;43861.03;5454763;26;20014;-68
2024/04/18 04:01:09;;;;;;;5.65;3.30;;;;;;;-146.27;87.48;43900.81;5452022;26;20067;-69
2024/04/18 04:03:34;;;;;;;7.78;3.20;;;;;;;-146.27;87.92;43865.00;5473692;26;20015;-69
2024/04/18 04:05:59;;;;;;;8.43;3.83;;;;;;;-146.27;87.62;43884.91;5463597;26;20424;-68
2024/04/18 04:08:25;;;;;;;4.90;3.05;;;;;;;-146.27;87.73;43869.00;5464624;26;19998;-70
2024/04/18 04:10:50;;;;;;;5.32;3.20;;;;;;;-146.27;87.67;43869.00;5451631;26;20308;-68
2024/04/18 04:13:15;;;;;;;10.20;3.65;;;;;;;-146.27;87.92;43857.06;5473070;26;20395;-68
2024/04/18 04:15:50;;;;;;;7.00;3.97;;;;;;;-146.27;88.48;43781.47;5464382;26;20440;-68
2024/04/18 04:18:16;;;;;;;7.20;3.92;;;;;;;-146.27;88.46;43789.41;5457258;26;20013;-68
2024/04/18 04:20:42;;;;;;;5.68;3.67;;;;;;;-146.27;87.41;43841.13;5483750;26;20040;-67
2024/04/18 04:23:07;;;;;;;7.28;4.00;;;;;;;-146.27;87.58;43817.25;5471551;26;20062;-68
2024/04/18 04:25:32;;;;;;;7.15;3.85;;;;;;;-146.27;87.90;43835.16;5476724;25;19994;-68
2024/04/18 04:27:58;;;;;;;6.93;3.42;;;;;;;-146.27;88.18;43813.28;5464909;26;19994;-69
2024/04/18 04:30:23;;;;;;;10.57;4.00;;;;;;;-146.27;88.21;43865.00;5450830;26;20335;-69
2024/04/18 04:32:48;;;;;;;7.80;4.25;;;;;;;-146.27;88.08;43845.13;5468865;25;20354;-72
2024/04/18 04:35:14;;;;;;;9.35;4.18;;;;;;;-146.27;88.31;43857.06;5468134;26;20322;-68
2024/04/18 04:37:39;;;;;;;6.88;4.32;;;;;;;-146.27;88.21;43896.84;5454531;26;20351;-70
2024/04/18 04:40:06;;;;;;;12.80;5.30;;;;;;;-146.27;87.84;43892.88;5460821;26;20007;-69
2024/04/18 04:42:33;;;;;;;8.07;4.78;;;;;;;-146.27;87.79;43936.63;5464519;26;19998;-69
2024/04/18 04:44:58;;;;;;;9.43;4.13;;;;;;;-146.27;88.19;43950.56;5452354;26;20006;-71
2024/04/18 04:47:24;;;;;;;9.60;5.25;;;;;;;-146.27;88.08;43978.41;5450903;26;20022;-67
2024/04/18 04:49:49;;;;;;;10.15;4.68;;;;;;;-146.27;88.29;43968.47;5452794;26;20018;-69
2024/04/18 04:52:15;;;;;;;8.27;5.13;;;;;;;-146.27;88.58;44004.28;5466192;26;20724;-67
2024/04/18 04:54:44;;;;;;;8.60;5.40;;;;;;;-146.27;88.63;44026.16;5447778;26;20433;-70
2024/04/18 04:57:10;;;;;;;12.25;5.07;;;;;;;-146.27;88.73;44079.88;5476228;26;19994;-68
2024/04/18 04:59:36;;;;;;;16.55;5.28;;;;;;;-146.27;89.19;44091.81;5450805;26;20007;-70
2024/04/18 05:02:02;;;;;;;10.35;6.07;;;;;;;-146.27;88.81;44149.50;5461780;26;19991;-71
2024/04/18 05:04:29;;;;;;;11.02;5.50;;;;;;;-146.27;88.46;44227.09;5449574;26;20002;-70
2024/04/18 05:06:54;;;;;;;9.60;5.90;;;;;;;-146.27;88.23;44350.47;5447129;26;20003;-70
2024/04/18 05:09:20;;;;;;;10.80;5.90;;;;;;;-146.27;88.24;44388.28;5463717;26;20303;-70
2024/04/18 05:11:46;;;;;;;7.57;5.45;;;;;;;-146.27;88.33;44422.09;5476176;26;20462;-69
2024/04/18 05:14:12;;;;;;;14.00;5.90;;;;;;;-146.27;88.18;44463.88;5481429;26;20075;-68
2024/04/18 05:16:37;;;;;;;12.23;6.72;;;;;;;-146.27;88.24;44471.84;5460587;26;20075;-68
2024/04/18 05:19:04;;;;;;;13.40;5.68;;;;;;;-146.27;88.25;44481.78;5458970;26;19995;-69
2024/04/18 05:21:29;;;;;;;8.05;5.65;;;;;;;-146.27;88.20;44517.59;5450378;26;20039;-69
2024/04/18 05:23:55;;;;;;;9.77;5.38;;;;;;;-146.27;88.11;44513.63;5454781;26;19998;-70
2024/04/18 05:26:20;;;;;;;8.65;5.28;;;;;;;-146.27;88.36;44505.66;5463313;26;20014;-70
2024/04/18 05:31:30;;;;;;;;;;;;;;;-146.27;88.33;44505.66;5477890;26;20005;-70
2024/04/18 05:33:55;;;;;;;9.23;5.53;;;;;;;-146.27;88.50;44545.47;5464208;26;19957;-69
2024/04/18 05:36:20;;;;;;;11.27;5.90;;;;;;;-146.27;88.45;44525.56;5457078;26;20009;-71
2024/04/18 05:38:46;;;;;;;8.85;5.57;;;;;;;-146.27;88.54;44545.47;5467335;26;20012;-69
2024/04/18 05:41:11;;;;;;;8.98;5.35;;;;;;;-146.27;88.67;44541.47;5470842;26;20331;-68
2024/04/18 05:43:37;;;;;;;11.00;5.57;;;;;;;-146.27;88.59;44503.69;5455569;26;20035;-71
2024/04/18 05:46:02;;;;;;;10.30;6.03;;;;;;;-146.27;88.40;44457.91;5458703;26;19994;-68
2024/04/18 05:48:27;;;;;;;13.48;4.47;;;;;;;-146.27;88.42;44414.13;5468536;26;20006;-67
2024/04/18 05:50:53;;;;;;;7.43;3.75;;;;;;;-146.27;88.40;44396.22;5471290;26;20009;-68
2024/04/18 05:53:18;;;;;;;8.00;3.80;;;;;;;-146.27;88.18;44332.56;5474034;26;20389;-71
2024/04/18 05:55:44;;;;;;;10.95;4.95;;;;;;;-146.27;87.81;44328.59;5457183;26;20131;-70
2024/04/18 05:58:09;;;;;;;7.85;4.10;;;;;;;-146.27;87.13;44330.56;5461781;26;20010;-70
2024/04/18 06:00:35;;;;;;;7.22;4.38;;;;;;;-146.27;85.83;44352.47;5472447;26;20454;-69
2024/04/18 06:03:01;;;;;;;10.88;3.45;;;;;;;-146.27;85.67;44370.38;5452334;26;20063;-68
2024/04/18 06:05:27;;;;;;;5.88;3.90;;;;;;;-146.27;85.09;44350.47;5466554;26;20002;-70
2024/04/18 06:07:52;;;;;;;11.32;4.10;;;;;;;-146.27;84.86;44362.41;5464486;26;20005;-70
2024/04/18 06:10:18;;;;;;;7.53;3.72;;;;;;;-146.27;84.37;44324.59;5470700;26;19991;-71
2024/04/18 06:12:43;;;;;;;7.07;3.05;;;;;;;-146.27;84.62;44326.59;5466864;26;20010;-70
2024/04/18 06:15:08;;;;;;;8.90;3.05;;;;;;;-146.27;83.90;44390.25;5463551;26;19994;-69
2024/04/18 06:17:36;;;;;;;9.38;2.83;;;;;;;-146.27;83.81;44410.16;5469036;26;20876;-68
2024/04/18 06:20:02;;;;;;;4.32;2.28;;;;;;;-146.27;83.77;44402.19;5478173;26;20017;-70
2024/04/18 06:22:28;;;;;;;5.38;2.22;;;;;;;-146.27;83.15;44398.22;5480980;26;20004;-69
2024/04/18 06:24:53;;;;;;;2.80;2.22;;;;;;;-146.27;83.00;44406.19;5473897;26;20107;-73
2024/04/18 06:27:19;;;;;;;7.43;2.47;;;;;;;-146.27;82.41;44465.88;5477068;26;20002;-70
2024/04/18 06:29:47;;;;;;;5.38;2.28;;;;;;;-146.27;82.91;44440.00;5473253;26;20020;-73
2024/04/18 06:32:12;;;;;;;4.07;2.22;;;;;;;-146.27;83.02;44420.09;5458321;26;20013;-68
2024/04/18 06:34:38;;;;;;;5.88;2.17;;;;;;;-146.27;82.42;44449.97;5458700;26;19999;-69
2024/04/18 06:37:06;;;;;;;7.00;2.35;;;;;;;-146.27;82.20;44426.06;5484295;26;20387;-70
2024/04/18 06:39:31;;;;;;;4.05;2.40;;;;;;;-146.27;81.27;44495.72;5455533;26;20022;-69
2024/04/18 06:41:57;;;;;;;5.93;2.30;;;;;;;-146.27;81.37;44557.41;5451174;26;19999;-71
2024/04/18 06:44:22;;;;;;;3.65;2.20;;;;;;;-146.27;81.90;44585.25;5461350;26;20006;-71
2024/04/18 06:46:48;;;;;;;2.83;1.90;;;;;;;-146.27;82.41;44557.41;5459648;26;20006;-69
2024/04/18 06:49:13;;;;;;;3.88;1.90;;;;;;;-146.27;82.39;44531.53;5464164;26;19999;-69
2024/04/18 06:51:39;;;;;;;4.55;2.22;;;;;;;-146.27;82.06;44549.44;5449549;26;20048;-70
2024/04/18 06:54:04;;;;;;;4.40;1.95;;;;;;;-146.27;81.47;44551.44;5449584;26;20017;-71
2024/04/18 06:56:29;;;;;;;3.60;1.95;;;;;;;-146.27;81.24;44583.28;5450026;26;19998;-69
2024/04/18 06:58:54;;;;;;;5.28;1.92;;;;;;;-146.27;80.50;44545.47;5448108;26;19991;-69
2024/04/18 07:01:20;;;;;;;4.68;1.80;;;;;;;-146.27;80.54;44585.25;5449664;26;19995;-68
2024/04/18 07:03:45;;;;;;;4.57;1.60;;;;;;;-146.27;80.95;44529.53;5449611;26;20031;-68
2024/04/18 07:06:11;;;;;;;6.47;2.05;;;;;;;-146.27;80.87;44525.56;5449794;26;20454;-69
2024/04/18 07:08:36;;;;;;;2.13;1.50;;;;;;;-146.27;80.71;44509.66;5449849;26;20010;-69
2024/04/18 07:11:02;;;;;;;3.65;1.75;;;;;;;-146.27;80.11;44648.94;5449815;26;19999;-69
2024/04/18 07:13:31;;;;;;;3.30;1.30;;;;;;;-146.27;80.48;44525.56;5477894;26;19998;-69
2024/04/18 07:15:58;;;;;;;1.33;1.17;;;;;;;-146.27;79.55;44611.13;5479462;26;20017;-68
2024/04/18 07:18:23;;;;;;;2.55;1.20;;;;;;;-146.27;79.65;44631.03;5469728;26;20003;-70
2024/04/18 07:20:48;;;;;;;3.35;1.92;;;;;;;-146.27;79.28;44652.91;5449035;26;19994;-69
2024/04/18 07:23:13;;;;;;;1.98;1.50;;;;;;;-146.27;79.70;44623.06;5453411;26;20485;-68
2024/04/18 07:25:39;;;;;;;1.50;0.93;;;;;;;-146.27;79.75;44537.50;5449228;26;19999;-67
2024/04/18 07:28:04;;;;;;;3.85;1.67;;;;;;;-146.27;78.27;44537.50;5449293;26;20504;-69
2024/04/18 07:30:31;;;;;;;4.15;1.25;;;;;;;-146.27;76.88;44670.81;5449618;26;20017;-70
2024/04/18 07:32:56;;;;;;;2.03;0.70;;;;;;;-146.27;77.21;44702.66;5449391;26;20013;-69
2024/04/18 07:35:23;;;;;;;1.13;0.65;;;;;;;-146.27;76.54;44794.19;5447450;26;20003;-68
2024/04/18 07:37:51;;;;;;;2.55;1.05;;;;;;;-146.27;76.61;44867.81;5448834;26;20136;-68
2024/04/18 07:40:20;;;;;;;2.70;0.95;;;;;;;-146.27;76.13;44857.88;5449318;26;19995;-69
2024/04/18 07:42:49;;;;;;;2.08;0.95;;;;;;;-146.27;76.95;44859.88;5447529;26;20459;-66
2024/04/18 07:45:15;;;;;;;1.92;0.63;;;;;;;-146.27;77.80;44828.03;5449241;26;20007;-68
2024/04/18 07:47:41;;;;;;;2.25;1.30;;;;;;;-146.27;78.03;44835.97;5463677;26;19990;-68
2024/04/18 07:50:07;;;;;;;1.05;0.60;;;;;;;-146.27;78.32;44810.13;5485284;26;19990;-69
2024/04/18 07:52:32;;;;;;;2.40;0.70;;;;;;;-146.27;78.31;44756.38;5485309;26;19990;-68
2024/04/18 07:54:57;;;;;;;3.40;0.65;;;;;;;-146.27;77.32;44828.03;5485581;26;19998;-69
2024/04/18 07:57:23;;;;;;;1.85;0.60;;;;;;;-146.27;78.99;44708.63;5483887;26;19998;-70
2024/04/18 07:59:48;;;;;;;2.67;0.80;;;;;;;-146.27;79.22;44684.75;5479518;26;20027;-69
2024/04/18 08:02:13;;;;;;;2.65;0.55;;;;;;;-146.27;78.34;44784.25;5485562;26;20006;-67
2024/04/18 08:04:39;;;;;;;0.50;0.50;;;;;;;-146.27;78.61;44694.69;5485041;26;20133;-69
2024/04/18 08:07:04;;;;;;;1.98;0.88;;;;;;;-146.27;78.16;44724.56;5482054;26;20005;-70
2024/04/18 08:09:29;;;;;;;2.92;0.68;;;;;;;-146.27;78.67;44676.78;5484054;26;20070;-68
2024/04/18 08:11:55;;;;;;;2.05;0.70;;;;;;;-146.27;77.35;44716.59;5484938;26;20002;-67
2024/04/18 08:14:20;;;;;;;1.00;0.90;;;;;;;-146.27;75.13;44738.47;5485217;26;20005;-72
2024/04/18 08:16:45;;;;;;;4.35;0.85;;;;;;;-146.27;73.67;44871.81;5485146;26;19998;-69
2024/04/18 08:19:11;;;;;;;1.48;0.63;;;;;;;-146.27;71.27;45058.88;5453283;26;20017;-69
2024/04/18 08:21:36;;;;;;;1.75;0.47;;;;;;;-146.27;70.29;45122.53;5448853;26;20327;-71
2024/04/18 08:24:02;;;;;;;1.92;0.85;;;;;;;-146.27;68.86;45323.56;5450121;26;20342;-69
2024/04/18 08:26:29;;;;;;;2.92;0.63;;;;;;;-146.27;69.26;45347.44;5450735;26;20324;-72
2024/04/18 08:28:54;;;;;;;3.58;0.65;;;;;;;-146.27;69.16;45297.69;5448795;26;20006;-69
2024/04/18 08:31:19;;;;;;;5.63;0.70;;;;;;;-146.27;70.42;45234.00;5454687;26;19998;-68
2024/04/18 08:33:46;;;;;;;4.82;0.90;;;;;;;-146.27;66.60;45409.13;5484747;26;19999;-68
2024/04/18 08:36:12;;;;;;;3.92;0.60;;;;;;;-146.27;65.49;45452.91;5484519;26;20002;-71
2024/04/18 08:38:37;;;;;;;1.95;0.60;;;;;;;-146.27;63.36;45651.94;5485191;26;20009;-68
2024/04/18 08:41:10;;;;;;;1.58;0.60;;;;;;;-146.27;61.79;45817.16;5460699;26;20006;-69
2024/04/18 08:43:36;;;;;;;2.72;0.75;;;;;;;-146.27;60.45;45930.59;5449332;26;19994;-69
2024/04/18 08:46:04;;;;;;;2.40;0.60;;;;;;;-146.27;61.17;45942.53;5452517;26;19995;-67
2024/04/18 08:48:31;;;;;;;2.33;0.73;;;;;;;-146.27;60.49;45978.38;5446370;26;19995;-69
2024/04/18 08:51:00;;;;;;;1.70;0.65;;;;;;;-146.27;60.02;46012.22;5447716;26;20049;-69
2024/04/18 08:53:25;;;;;;;3.67;1.05;;;;;;;-146.27;61.65;46014.22;5450176;26;20064;-68
2024/04/18 08:55:54;;;;;;;5.32;0.82;;;;;;;-146.27;63.18;45910.69;5451601;26;20132;-70
2024/04/18 08:58:21;;;;;;;2.97;0.60;;;;;;;-146.27;57.75;46071.94;5451444;26;20458;-68
2024/04/18 09:00:46;;;;;;;3.03;0.60;;;;;;;-146.27;57.27;46135.63;5467666;26;20009;-70
2024/04/18 09:03:12;;;;;;;2.85;0.60;;;;;;;-146.27;55.63;46288.91;5487971;26;19994;-69
2024/04/18 09:05:38;;;;;;;3.55;0.57;;;;;;;-146.27;57.45;46243.13;5485929;26;19994;-68
2024/04/18 09:08:04;;;;;;;4.47;0.90;;;;;;;-146.27;58.60;46253.06;5488022;26;20066;-67
2024/04/18 09:10:30;;;;;;;4.18;0.73;;;;;;;-146.27;59.77;46261.03;5471298;26;20009;-70
2024/04/18 09:12:56;;;;;;;6.60;0.63;;;;;;;-146.27;58.84;46300.84;5451982;26;20003;-69
2024/04/18 09:15:22;;;;;;;2.17;0.40;;;;;;;-146.27;59.85;46316.78;5450986;26;19999;-69
2024/04/18 09:18:07;;;;;;;3.13;0.50;;;;;;;-146.27;59.18;46284.94;5449678;26;20557;-69
2024/04/18 09:20:34;;;;;;;2.05;0.60;;;;;;;-146.27;60.59;46209.28;5450995;26;19991;-69
2024/04/18 09:23:00;;;;;;;3.75;0.65;;;;;;;-146.27;60.10;46213.25;5451288;26;19995;-68
2024/04/18 09:25:25;;;;;;;2.80;0.45;;;;;;;-146.27;58.25;46197.34;5451079;26;20178;-68
2024/04/18 09:27:51;;;;;;;3.15;0.60;;;;;;;-146.27;55.45;46189.38;5451003;26;20373;-69
2024/04/18 09:30:16;;;;;;;3.92;0.50;;;;;;;-146.27;55.12;46175.44;5455729;26;19998;-67
2024/04/18 09:32:42;;;;;;;1.67;0.52;;;;;;;-146.27;50.90;46286.91;5451096;26;20458;-69
2024/04/18 09:35:09;;;;;;;2.15;0.70;;;;;;;-146.27;48.70;46480.03;5451119;26;20070;-70
2024/04/18 09:37:37;;;;;;;2.83;1.05;;;;;;;-146.27;48.43;46501.91;5450580;26;20778;-69
2024/04/18 09:40:05;;;;;;;2.85;0.52;;;;;;;-146.27;48.64;46472.06;5450677;26;20002;-68
2024/04/18 09:42:59;;;;;;;2.40;0.65;;;;;;;-146.27;46.72;46555.66;5449173;26;19991;-69
2024/04/18 09:45:31;;;;;;;4.32;0.45;;;;;;;-146.27;45.86;46673.13;5456092;26;20012;-69
2024/04/18 09:47:57;;;;;;;1.75;0.50;;;;;;;-146.27;44.55;46806.53;5471366;26;19999;-68
2024/04/18 09:50:25;;;;;;;3.28;0.60;;;;;;;-146.27;48.92;46714.94;5450841;26;20092;-69
2024/04/18 09:52:51;;;;;;;4.28;0.88;;;;;;;-146.27;48.22;46704.97;5450526;26;20011;-69
2024/04/18 09:55:19;;;;;;;3.58;0.50;;;;;;;-146.27;51.41;46599.47;5451150;26;19994;-69
2024/04/18 09:57:47;;;;;;;3.92;0.60;;;;;;;-146.27;47.37;46603.44;5450403;26;20031;-70
2024/04/18 10:00:14;;;;;;;2.20;0.40;;;;;;;-146.27;45.60;46722.91;5451023;26;20494;-67
2024/04/18 10:02:41;;;;;;;1.70;0.60;;;;;;;-146.27;45.91;46704.97;5450877;26;19995;-69
2024/04/18 10:05:07;;;;;;;3.22;0.50;;;;;;;-146.27;45.81;46746.78;5449211;26;20036;-69
2024/04/18 10:07:34;;;;;;;2.70;0.68;;;;;;;-146.27;45.21;46758.72;5452597;26;19999;-68
2024/04/18 10:10:00;;;;;;;2.40;0.65;;;;;;;-146.27;44.83;46766.69;5456183;26;20745;-68
2024/04/18 10:12:31;;;;;;;5.20;0.60;;;;;;;-146.27;40.33;46983.72;5454887;26;20031;-69
2024/04/18 10:14:57;;;;;;;2.20;0.60;;;;;;;-146.27;40.67;47061.38;5448235;26;19999;-69
2024/04/18 10:17:40;;;;;;;2.38;0.40;;;;;;;-146.27;41.00;47069.34;5450574;26;19999;-70
2024/04/18 10:20:06;;;;;;;0.57;0.20;;;;;;;-146.27;41.87;47041.47;5485206;26;20020;-68
2024/04/18 10:22:35;;;;;;;1.40;0.40;;;;;;;-146.27;40.90;47073.31;5485684;26;19994;-69
2024/04/18 10:25:02;;;;;;;2.75;0.40;;;;;;;-146.27;42.23;47041.47;5482902;26;20040;-69
2024/04/18 10:27:27;;;;;;;4.53;1.45;;;;;;;-146.27;42.23;47057.38;5484181;26;20013;-69
2024/04/18 10:29:57;;;;;;;3.88;0.60;;;;;;;-146.27;40.18;47045.44;5449933;26;19995;-69
2024/04/18 10:32:29;;;;;;;1.15;0.50;;;;;;;-146.27;42.81;46973.75;5450036;26;19991;-68
2024/04/18 10:34:55;;;;;;;4.63;0.50;;;;;;;-146.27;43.44;47007.59;5450164;26;20013;-70
2024/04/18 10:37:22;;;;;;;5.07;0.63;;;;;;;-146.27;44.03;47007.59;5449443;26;19999;-69
2024/04/18 10:39:48;;;;;;;1.95;0.40;;;;;;;-146.27;44.96;47071.31;5450049;26;21003;-69
2024/04/18 10:42:18;;;;;;;1.80;0.50;;;;;;;-146.27;46.10;47031.50;5461537;26;19990;-71
2024/04/18 10:44:45;;;;;;;1.55;0.55;;;;;;;-146.27;44.49;47031.50;5466283;26;20460;-70
2024/04/18 10:47:12;;;;;;;2.45;0.55;;;;;;;-146.27;44.55;47049.41;5450132;26;19999;-68
2024/04/18 10:49:38;;;;;;;1.50;0.47;;;;;;;-146.27;43.04;47069.34;5458648;26;19991;-70
2024/04/18 10:52:08;;;;;;;2.05;0.45;;;;;;;-146.27;43.30;46965.78;5485157;26;20047;-69
2024/04/18 10:54:35;;;;;;;3.38;0.40;;;;;;;-146.27;45.12;46997.66;5486285;26;20005;-68
2024/04/18 10:57:00;;;;;;;3.38;0.40;;;;;;;-146.27;43.60;47037.47;5486321;26;20013;-69
2024/04/18 10:59:25;;;;;;;2.28;0.25;;;;;;;-146.27;44.23;47061.38;5460618;26;19994;-69
2024/04/18 11:02:02;;;;;;;2.17;0.20;;;;;;;-146.27;42.18;47063.34;5449947;26;19994;-70
2024/04/18 11:04:27;;;;;;;2.55;0.47;;;;;;;-146.27;40.02;47073.31;5449878;26;19995;-68
2024/04/18 11:06:52;;;;;;;0.55;0.38;;;;;;;-146.27;40.17;47073.31;5452655;26;20389;-68
2024/04/18 11:09:18;;;;;;;3.97;0.30;;;;;;;-146.27;40.81;47162.91;5472314;26;20088;-69
2024/04/18 11:11:43;;;;;;;0.45;0.32;;;;;;;-146.27;42.04;47125.09;5485800;26;20442;-67
2024/04/18 11:14:09;;;;;;;1.83;0.47;;;;;;;-146.27;40.88;47107.16;5485767;26;20002;-68